ADDS METAR Data INFO
IDs: Format: Raw Decoded Include TAF

Data at: 0839 UTC 21 Oct 2017

KOKK 210756Z AUTO 19003KT 10SM CLR 13/09 A3016 RMK AO2 SLP210 T01280094
KOKK 210656Z AUTO 17005KT 10SM CLR 13/09 A3015 RMK AO2 SLP210 T01280094
KOKK 210556Z AUTO 17005KT 10SM CLR 12/09 A3015 RMK AO2 SLP208 T01220094 10161 20117 56002
KOKK 210456Z AUTO 15004KT 10SM CLR 13/09 A3015 RMK AO2 SLP208 T01280094 402500083
KOKK 210356Z AUTO 15003KT 10SM CLR 13/09 A3015 RMK AO2 SLP210 T01280094
KOKK 210256Z AUTO 17008KT 10SM CLR 14/09 A3016 RMK AO2 SLP212 T01440094 55002
KOKK 210156Z AUTO 17007KT 10SM CLR 14/10 A3015 RMK AO2 SLP211 T01440100
KOKK 210056Z AUTO 16004KT 10SM CLR 14/10 A3015 RMK AO2 SLP213 T01440100
KOKK 202356Z AUTO 17004KT 10SM CLR 16/10 A3016 RMK AO2 SLP216 T01610100 10250 20156 55002
KOKK 202256Z AUTO 17005KT 10SM CLR 19/11 A3015 RMK AO2 SLP212 T01890106
KOKK 202156Z AUTO 18006KT 10SM CLR 23/10 A3015 RMK AO2 SLP210 T02330100
KOKK 202056Z AUTO 18009KT 10SM CLR 24/11 A3017 RMK AO2 SLP216 T02390106 56017
KOKK 201956Z AUTO 18011KT 10SM CLR 24/10 A3018 RMK AO2 SLP219 T02440100
KOKK 201856Z AUTO 20011KT 10SM CLR 24/11 A3019 RMK AO2 SLP223 T02440111
KOKK 201756Z AUTO 20011KT 10SM CLR 24/12 A3022 RMK AO2 SLP233 T02440117 10244 20083 58020
KOKK 201656Z AUTO 18010KT 10SM CLR 23/12 A3025 RMK AO2 SLP243 T02330122
KOKK 201556Z AUTO 20006KT 10SM CLR 22/12 A3027 RMK AO2 SLP251 T02170122
KOKK 201456Z AUTO 19005KT 10SM CLR 18/12 A3028 RMK AO2 SLP253 T01830122 50005
KOKK 201356Z AUTO 18006KT 10SM CLR 14/12 A3028 RMK AO2 SLP256 T01440117
KOKK 201256Z AUTO 17004KT 5SM BR CLR 11/10 A3027 RMK AO2 SLP254 T01110100
KOKK 201156Z AUTO 16004KT 5SM BR CLR 09/08 A3026 RMK AO2 SLP250 T00890083 10106 20083 52012
KOKK 201056Z AUTO 17005KT 8SM CLR 09/08 A3025 RMK AO2 SLP245 T00890083
KOKK 200956Z AUTO 17004KT 10SM CLR 10/09 A3024 RMK AO2 SLP241 T01000094
KOKK 200856Z AUTO 14004KT 10SM CLR 09/08 A3023 RMK AO2 SLP237 T00890078 53002
KOKK 200756Z AUTO 00000KT 10SM CLR 09/08 A3022 RMK AO2 SLP237 T00890083
KOKK 200656Z AUTO 13004KT 10SM CLR 09/08 A3022 RMK AO2 SLP235 T00940083
KOKK 200556Z AUTO 14004KT 10SM CLR 09/08 A3022 RMK AO2 SLP233 T00890078 10156 20089 51002
KOKK 200456Z AUTO 10003KT 10SM CLR 09/08 A3022 RMK AO2 SLP232 T00940083 402330089
KOKK 200356Z AUTO 13003KT 10SM CLR 11/09 A3022 RMK AO2 SLP232 T01060094 TSNO
KOKK 200256Z AUTO 00000KT 10SM CLR 11/09 A3021 RMK AO2 SLP232 T01110094 53004
KOKK 200156Z AUTO 00000KT 10SM CLR 12/09 A3020 RMK AO2 SLP230 T01170094
KOKK 200056Z AUTO 00000KT 7SM CLR 13/11 A3020 RMK AO2 SLP230 T01330106
KOKK 192356Z AUTO 00000KT 10SM CLR 15/11 A3020 RMK AO2 SLP228 T01500106 10233 20150 53007 TSNO
KOKK 192256Z AUTO 25005KT 10SM CLR 19/11 A3019 RMK AO2 SLP226 T01940111
KOKK 192156Z AUTO 27005KT 10SM CLR 22/11 A3019 RMK AO2 SLP222 T02170111
KOKK 192056Z AUTO 24008KT 10SM CLR 23/11 A3018 RMK AO2 SLP219 T02280111 55004